St. George, Utah Weather observations

Data are for observation ending at time listed.
 Day   Time    Ave.   Ave.  Ave.  Vector   Max.   Stn.    Total    Solar   Ave.  
  of    of     Air    Rel.  Wind   Wind    Wind   Baro.  Precip.   Rad.    Soil  
Year   Day     Temp.  Hum.  Speed  Dir.    Gust   Pres.                    Temp. 
2016   (MST)    F      %     mph   deg.    mph     mb.     in.     W/m2     F   
------------------------------------------------------------------------------
  38   12:40   53.0    32    2.4   201      5.0   931.1    0.00     653    46.0
  38   12:50   53.0    32    2.1   178      4.5   931.0    0.00     656    46.2
  38   13:00   54.2    31    1.5   194      4.4   930.8    0.00     657    46.3
  38   13:10   54.4    30    2.9   187      5.1   930.6    0.00     656    46.5
  38   13:20   54.8    28    3.5   199      6.1   930.4    0.00     652    46.7
  38   13:30   54.9    28    2.9   203      6.2   930.2    0.00     650    46.9
  38   13:40   56.0    27    2.7   225      5.2   930.0    0.00     645    47.1
  38   13:50   56.6    27    3.3   194      5.3   929.8    0.00     638    47.3
  38   14:00   56.7    25    4.2   221      7.2   929.5    0.00     629    47.5
  38   14:10   58.0    24    3.5   225      6.7   929.4    0.00     618    47.7
  38   14:20   58.6    24    2.9   247      5.5   929.3    0.00     605    47.9
  38   14:30   58.5    24    3.1   252      7.1   929.1    0.00     591    48.1
  38   14:40   58.8    24    3.4   211      7.0   929.1    0.00     576    48.3
  38   14:50   58.9    24    3.0   197      5.8   929.1    0.00     560    48.5
  38   15:00   59.7    24    2.2   202      4.8   929.0    0.00     542    48.7
  38   15:10   60.6    23    2.9   207      6.8   928.9    0.00     523    49.0
  38   15:20   60.4    23    3.0   207      6.7   928.8    0.00     502    49.1
  38   15:30   61.2    22    2.8   207      6.2   928.6    0.00     479    49.3
  38   15:40   61.6    22    2.4   183      6.1   928.7    0.00     455    49.5
  38   15:50   62.4    22    1.9   192      5.8   928.5    0.00     430    49.7
  38   16:00   63.4    20    2.2   202      6.5   926.1    0.00     404    49.9
  38   16:10   63.6    20    2.1   270      4.3   927.4    0.00     376    50.1
  38   16:20   64.6    20    1.7   218      4.2   926.8    0.00     348    50.3
  38   16:30   64.5    20    1.6   145      3.9   925.9    0.00     318    50.4
  38   16:40   64.8    20    2.2   180      5.9   927.6    0.00     272    50.6
  38   16:50   63.8    20    3.7   156      7.2   928.2    0.00     245    50.7
  38   17:00   63.1    20    3.7   153      8.7   928.3    0.00     217    50.9
  38   17:10   63.1    20    4.0   149      7.7   928.3    0.00     183    51.0
  38   17:20   63.3    20    3.1   164      8.7   928.4    0.00     163    51.1
  38   17:30   62.2    21    2.4   125      5.3   928.6    0.00     111    51.2
  38   17:40   61.9    20    2.2   156      4.5   928.6    0.00      97    51.3
  38   17:50   61.2    21    1.2   139      4.1   928.7    0.00      61    51.4
  38   18:00   59.9    22    1.7   183      3.7   928.9    0.00      17    51.5
  38   18:10   58.8    23    3.0   200      7.2   928.9    0.00       5    51.5
  38   18:20   57.5    24    4.3   202      8.9   928.9    0.00       3    51.6
  38   18:30   56.1    26    2.8   142      5.9   929.0    0.00       0    51.6
  38   18:40   55.3    26    2.2   179      5.1   929.2    0.00       0    51.6
  38   18:50   54.4    26    1.7   152      4.4   929.4    0.00       0    51.6
  38   19:00   53.9    26    2.0   167      4.3   929.5    0.00       0    51.6
  38   19:10   53.2    26    2.3   150      5.0   929.7    0.00       0    51.6
  38   19:20   52.2    28    1.2   136      3.8   929.8    0.00       0    51.6
  38   19:30   51.9    28    2.1   145      5.2   930.0    0.00       0    51.6
  38   19:40   51.9    28    1.0   164      2.8   930.1    0.00       0    51.5
  38   19:50   50.9    29    0.5   284      1.8   930.3    0.00       0    51.5
  38   20:00   50.2    30    1.3   227      3.4   930.4    0.00       0    51.4
  38   20:10   49.7    31    1.1   342      3.7   930.4    0.00       0    51.4
  38   20:20   49.0    32    0.7   296      1.8   930.6    0.00       0    51.3
  38   20:30   48.8    33    1.0   134      3.2   930.7    0.00       0    51.2
  38   20:40   48.0    34    0.5   171      2.9   930.9    0.00       0    51.1
  38   20:50   48.2    34    1.4   193      3.3   931.1    0.00       0    51.1
  38   21:00   48.1    35    0.8   260      1.9   931.2    0.00       0    51.0
  38   21:10   47.4    36    1.2   277      2.0   931.4    0.00       0    50.9
  38   21:20   46.6    37    0.5   248      2.6   931.6    0.00       0    50.8
  38   21:30   47.3    35    3.2   233      6.4   931.7    0.00       0    50.8
  38   21:40   47.5    35    2.4   236      3.9   931.8    0.00       0    50.7
  38   21:50   47.3    35    1.2   294      2.3   931.9    0.00       0    50.6
  38   22:00   46.1    38    1.1   279      2.3   932.0    0.00       0    50.5
  38   22:10   45.6    39    1.8   333      2.8   932.0    0.00       0    50.5
  38   22:20   45.9    38    1.8   335      3.1   932.2    0.00       0    50.4
  38   22:30   45.7    39    1.5   348      2.9   932.2    0.00       0    50.3
  38   22:40   45.5    39    0.5   290      2.6   932.3    0.00       0    50.3
  38   22:50   45.7    38    1.4   135      3.5   932.4    0.00       0    50.2
  38   23:00   46.1    37    2.5   136      4.4   932.4    0.00       0    50.1
  38   23:10   44.9    40    0.9   244      2.2   932.5    0.00       0    50.0
  38   23:20   44.0    42    0.7    36      2.1   932.5    0.00       0    49.9
  38   23:30   43.6    43    1.3    54      2.6   932.5    0.00       0    49.9
  38   23:40   43.2    44    1.4    65      2.9   932.6    0.00       0    49.8
  38   23:50   43.1    44    1.8    88      3.4   932.6    0.00       0    49.7
  39    0:00   43.4    43    1.1    22      2.5   932.7    0.00       0    49.6
  39    0:10   42.7    45    1.6    35      3.4   932.7    0.00       0    49.5
  39    0:20   42.8    45    2.2    55      4.5   932.7    0.00       0    49.4
  39    0:30   42.3    46    2.1    49      3.3   932.7    0.00       0    49.4
  39    0:40   42.2    47    0.8    73      2.9   932.8    0.00       0    49.3
  39    0:50   41.9    47    1.2    47      2.9   932.9    0.00       0    49.2
  39    1:00   41.6    48    0.6    34      1.5   933.0    0.00       0    49.1
  39    1:10   41.5    48    1.1    37      2.0   933.0    0.00       0    49.1
  39    1:20   41.5    48    1.2    13      3.7   933.1    0.00       0    49.0
  39    1:30   41.3    49    1.4    47      2.5   933.2    0.00       0    48.9
  39    1:40   41.1    49    1.5    50      2.5   933.1    0.00       0    48.8
  39    1:50   41.2    49    1.5   312      2.8   933.2    0.00       0    48.7
  39    2:00   39.6    52    0.6   285      1.6   933.2    0.00       0    48.7
  39    2:10   38.7    54    0.5   150      1.8   933.2    0.00       0    48.6
  39    2:20   38.4    56    0.8   152      3.7   933.3    0.00       0    48.5
  39    2:30   37.8    57    0.5    91      2.1   933.3    0.00       0    48.4
  39    2:40   37.2    58    0.5   250      1.9   933.3    0.00       0    48.4
  39    2:50   37.0    59    1.8   348      3.5   933.3    0.00       0    48.3
  39    3:00   37.2    59    0.6    19      1.6   933.3    0.00       1    48.2
  39    3:10   37.4    58    1.1     7      2.3   933.3    0.00       0    48.1
  39    3:20   37.6    58    0.2    22      0.9   933.2    0.00       0    48.1
  39    3:30   36.9    59    0.2    19      1.3   933.2    0.00       1    48.0
  39    3:40   36.2    61    0.7   317      2.6   933.2    0.00       0    47.9
  39    3:50   36.2    61    1.2   340      2.0   933.2    0.00       0    47.8
  39    4:00   36.9    59    1.0    17      1.7   933.2    0.00       0    47.8
  39    4:10   37.4    58    1.0   359      1.9   933.2    0.00       0    47.7
  39    4:20   37.9    56    1.7   341      2.7   933.1    0.00       0    47.6
  39    4:30   37.3    58    0.4   318      1.2   933.2    0.00       0    47.5
  39    4:40   35.9    61    0.3   157      1.7   933.1    0.00       0    47.4
  39    4:50   34.8    64    0.3   101      1.5   933.1    0.00       0    47.4
  39    5:00   34.7    65    0.2   117      1.2   933.2    0.00       0    47.3
  39    5:10   34.6    66    0.6    73      2.0   933.3    0.00       0    47.3
  39    5:20   35.0    65    1.1    71      2.1   933.4    0.00       0    47.2
  39    5:30   35.1    65    0.7    64      2.0   933.4    0.00       0    47.1
  39    5:40   35.9    63    1.1    40      2.5   933.4    0.00       0    47.0
  39    5:50   34.2    67    1.4   222      3.0   933.5    0.00       0    47.0
  39    6:00   33.3    69    0.6   301      3.2   933.6    0.00       0    46.9
  39    6:10   33.2    70    1.5   336      3.0   933.7    0.00       0    46.8
  39    6:20   33.5    69    0.4     8      1.9   933.8    0.00       0    46.7
  39    6:30   33.3    69    0.1    40      1.1   933.8    0.00       0    46.7
  39    6:40   33.2    70    0.4   359      1.8   933.9    0.00       0    46.6
  39    6:50   33.6    69    2.0   337      2.8   934.0    0.00       0    46.5
  39    7:00   34.1    68    1.3   356      2.6   934.0    0.00       0    46.5
  39    7:10   34.6    66    0.6    86      1.8   934.0    0.00       0    46.4
  39    7:20   34.5    66    0.9   188      2.1   934.0    0.00       0    46.3
  39    7:30   33.4    69    0.4   253      1.3   934.3    0.00       1    46.2
  39    7:40   33.0    70    0.4   303      1.6   934.5    0.00       5    46.2
  39    7:50   32.7    71    0.1   292      0.9   934.5    0.00       8    46.1
  39    8:00   32.8    71    0.3   280      1.3   934.5    0.00      13    46.1
  39    8:10   33.1    71    0.6    14      2.0   934.6    0.00      16    46.0
  39    8:20   34.5    68    1.3   132      2.8   934.5    0.00      31    45.9
  39    8:30   34.9    68    1.8   143      4.4   934.7    0.00     102    45.9
  39    8:40   35.6    67    1.9   131      4.7   934.7    0.00     156    45.8
  39    8:50   37.9    62    0.7    88      2.5   934.7    0.00     190    45.8
  39    9:00   40.6    56    0.4   196      2.1   934.7    0.00     220    45.8
  39    9:10   40.4    55    0.7   215      2.0   934.7    0.00     251    45.7
  39    9:20   41.8    52    1.2   109      2.5   934.6    0.00     281    45.7
  39    9:30   42.1    51    1.5   114      2.6   934.6    0.00     311    45.7
  39    9:40   42.9    49    0.9   162      2.9   934.6    0.00     341    45.7
  39    9:50   44.6    46    0.7   230      2.1   934.6    0.00     369    45.7
  39   10:00   45.4    46    1.5   182      3.3   934.5    0.00     395    45.8
  39   10:10   45.8    44    2.1   176      4.0   934.5    0.00     423    45.8
  39   10:20   45.9    44    2.4   175      4.3   934.4    0.00     449    45.8
  39   10:30   46.2    43    2.8   178      5.3   934.4    0.00     474    45.8
  39   10:40   46.8    42    2.2   200      3.9   934.3    0.00     496    45.9
  39   10:50   48.1    40    1.7   180      3.6   934.4    0.00     517    45.9
  39   11:00   49.2    38    2.0   214      3.9   934.3    0.00     538    46.0
  39   11:10   50.1    36    1.8   246      3.7   934.1    0.00     557    46.1
  39   11:20   50.6    34    2.3   185      3.9   933.9    0.00     574    46.2
  39   11:30   51.4    32    1.6   192      4.2   933.7    0.00     590    46.3
  39   11:40   51.9    32    1.8   212      4.7   933.6    0.00     605    46.4
  39   11:50   51.9    31    2.7   223      5.6   933.4    0.00     619    46.5
  39   12:00   53.1    29    2.0   247      5.0   933.3    0.00     630    46.7
  39   12:10   54.0    30    2.1   250      5.7   933.0    0.00     639    46.8
  39   12:20   53.6    30    3.3   215      5.9   932.8    0.00     647    46.9
  39   12:30   54.9    30    2.4   223      6.3   932.6    0.00     653    47.1

Return to St. George, Utah graphs page.


Western Regional Climate Center,wrcc@dri.edu